KSUW/SUW METAR and TAF weather

Enter ICAO airport designator
Station Type Date Time Source
KSUW METAR 2019/10/21 22:35 UTC NOAA

KSUW 212235Z AUTO 06022G33KT 4SM -RA OVC006 08/08 A2920 RMK AO2 P0008 T00810080


Station Type Date Time Source
KSUW Decoded METAR 2019/10/21 22:35 UTC NOAA

Superior, Richard I. Bong Airport, WI, United States (KSUW) 46-41-23N 092-05-41W
Oct 21, 2019 - 06:35 PM EDT / 2019.10.21 2235 UTC
Wind: from the ENE (060 degrees) at 25 MPH (22 KT) gusting to 38 MPH (33 KT):0
Visibility: 4 mile(s):0
Sky conditions: overcast
Weather: light rain
Precipitation last hour: 0.08 inches
Temperature: 46.6 F (8.1 C)
Dew Point: 46.4 F (8.0 C)
Relative Humidity: 99%
Pressure (altimeter): 29.2 in. Hg (988 hPa)
ob: KSUW 212235Z AUTO 06022G33KT 4SM -RA OVC006 08/08 A2920 RMK AO2 P0008 T00810080
cycle: 22

Station Type Date Time Source
KSUW TAF UTC NOAA

Error!

Example: see airport list